Terminal Aerodrome Forecast
Issued by NWS

Home | Current Version | Previous Version | Text Only | Print | Product List | Glossary On
Versions: 1 2 3 4 5 6 7 8 9 10 11 12 13 14 15 16 17 18 19 20 21 22 23 24
000
FTUS45 KREV 200500
TAFTRK
TAF
KTRK 200527Z 2006/2106 VRB03KT 5SM -RASN BKN025 OVC035
     FM201800 21008KT 6SM -SHRA SCT018 BKN030
     FM210200 VRB03KT P6SM BKN040
      AMD NOT SKED 2006/2012=

USA.gov is the U.S. government's official web portal to all federal, state and local government web resources and services.